KAXN

Chandler Field Airport

Alexandria, Minnesota, USA
METAR KAXN 160853Z AUTO 32012G23KT 10SM OVC007 M04/M07 A2995 RMK AO2 SLP159 T10391072 53009
Observed Flight Rules
Nov-16 @ 08:53 UTC (53 minutes ago) Instrument Flight Rules
Wind Visibility Clouds
320° at 12 knots
 Gusting to 23 knots
10 miles
  • Overcast at 700' AGL
Temperatures Readings
Current -4°C / 25°F
Dewpoint -7°C / 19°F
Humidity 80%
Altimeter 29.95" Hg
Pressure 1015.9 hPa
Elevation 433
METAR KAXN 160853Z AUTO 32012G23KT 10SM OVC007 M04/M07 A2995 RMK AO2 SLP159 T10391072 53009
Observed Flight Rules
Nov-16 @ 08:53 UTC
(53 minutes ago)
IFR
Wind Visibility
320° at 12 knots
 Gusting to 23 knots
10 miles
Clouds
  • Overcast at 700' AGL
Temperature Dewpoint
-4°C / 25°F -7°C / 19°F
Humidity Altimeter Pressure
80% 29.95" Hg 1015.9 hPa